Time;durP1;ratioP1;P1;durP2;ratioP2;P2;SDS_P1;SDS_P2;PMS_P1;PMS_P2;Temp;Humidity;BMP_temperature;BMP_pressure;BME280_temperature;BME280_humidity;BME280_pressure;Samples;Min_cycle;Max_cycle;Signal;HPM_P1;HPM_P2
2023/06/07 00:01:56;;;;;;;5.93;4.13;;;27.00;99.90;;;;;;5047782;22;20057;-52
2023/06/07 00:04:22;;;;;;;6.43;3.60;;;27.00;99.90;;;;;;5035587;28;20067;-51
2023/06/07 00:06:48;;;;;;;6.65;3.88;;;27.00;99.90;;;;;;5017700;28;20030;-52
2023/06/07 00:09:14;;;;;;;6.10;3.80;;;27.00;99.90;;;;;;5035465;28;20037;-52
2023/06/07 00:11:40;;;;;;;5.35;3.95;;;27.00;99.90;;;;;;5035487;28;20056;-56
2023/06/07 00:14:06;;;;;;;5.85;4.25;;;27.00;99.90;;;;;;5035545;28;20029;-52
2023/06/07 00:16:32;;;;;;;5.65;3.90;;;27.00;99.90;;;;;;5035275;28;20032;-52
2023/06/07 00:19:01;;;;;;;9.00;4.60;;;26.90;99.90;;;;;;5035543;28;20486;-51
2023/06/07 00:21:27;;;;;;;7.85;4.05;;;26.90;99.90;;;;;;5035211;28;20266;-51
2023/06/07 00:23:53;;;;;;;5.97;3.97;;;27.00;99.90;;;;;;5035416;28;20025;-51
2023/06/07 00:26:19;;;;;;;7.72;4.53;;;26.90;99.90;;;;;;5017557;28;20032;-52
2023/06/07 00:28:44;;;;;;;7.53;4.85;;;27.00;99.90;;;;;;5035229;28;20381;-51
2023/06/07 00:31:10;;;;;;;6.72;4.22;;;27.00;99.90;;;;;;5035210;28;20437;-51
2023/06/07 00:33:36;;;;;;;4.28;3.55;;;27.00;99.90;;;;;;5034978;28;20079;-52
2023/06/07 00:36:02;;;;;;;6.10;4.05;;;26.90;99.90;;;;;;5035171;28;20036;-52
2023/06/07 00:38:28;;;;;;;4.80;3.60;;;26.90;99.90;;;;;;5033863;28;20029;-52
2023/06/07 00:40:54;;;;;;;9.48;3.88;;;26.90;99.90;;;;;;5034804;28;20474;-52
2023/06/07 00:43:19;;;;;;;5.30;3.72;;;26.90;99.90;;;;;;5033866;28;20421;-52
2023/06/07 00:45:45;;;;;;;8.13;4.03;;;26.90;99.90;;;;;;5034426;28;20029;-52
2023/06/07 00:48:12;;;;;;;6.70;4.38;;;26.90;99.90;;;;;;5034386;28;20034;-52
2023/06/07 00:50:38;;;;;;;5.80;3.87;;;26.90;99.90;;;;;;5034469;28;20155;-52
2023/06/07 00:53:04;;;;;;;6.80;3.85;;;26.90;99.90;;;;;;5034257;28;20018;-52
2023/06/07 00:55:31;;;;;;;6.63;3.42;;;26.90;99.90;;;;;;5034305;28;20029;-51
2023/06/07 00:57:58;;;;;;;4.60;3.53;;;26.90;99.90;;;;;;5033124;28;20025;-52
2023/06/07 01:00:24;;;;;;;4.22;3.33;;;26.90;99.90;;;;;;5042679;22;20020;-60
2023/06/07 01:02:51;;;;;;;5.47;3.28;;;26.90;99.90;;;;;;5033998;28;20172;-61
2023/06/07 01:05:20;;;;;;;5.85;3.50;;;26.90;99.90;;;;;;5034107;28;20053;-60
2023/06/07 01:07:47;;;;;;;5.65;3.50;;;26.90;99.90;;;;;;5034150;28;20136;-61
2023/06/07 01:10:14;;;;;;;;;;;26.90;99.90;;;;;;5034347;28;20033;-60
2023/06/07 01:12:44;;;;;;;5.70;3.30;;;26.90;99.90;;;;;;5034135;28;20304;-60
2023/06/07 01:15:12;;;;;;;4.57;3.10;;;26.80;99.90;;;;;;5033872;28;20830;-59
2023/06/07 01:17:44;;;;;;;5.28;3.60;;;26.80;99.90;;;;;;5034007;28;20017;-61
2023/06/07 01:20:21;;;;;;;4.38;3.17;;;26.80;99.90;;;;;;5034029;28;20064;-61
2023/06/07 01:22:48;;;;;;;8.32;3.20;;;26.90;99.90;;;;;;5033792;28;20108;-60
2023/06/07 01:25:14;;;;;;;4.45;3.40;;;26.90;99.90;;;;;;5032221;28;20029;-60
2023/06/07 01:27:43;;;;;;;4.97;3.40;;;26.80;99.90;;;;;;5033613;28;20427;-61
2023/06/07 01:30:11;;;;;;;3.75;3.15;;;26.80;99.90;;;;;;5033674;28;20037;-60
2023/06/07 01:32:40;;;;;;;4.60;3.53;;;26.80;99.90;;;;;;5033797;28;20477;-60
2023/06/07 01:35:08;;;;;;;5.03;3.22;;;26.80;99.90;;;;;;5032496;28;20029;-62
2023/06/07 01:37:35;;;;;;;7.25;3.45;;;26.80;99.90;;;;;;5033670;28;20051;-62
2023/06/07 01:40:05;;;;;;;5.78;3.25;;;26.80;99.90;;;;;;5033553;28;20096;-62
2023/06/07 01:42:33;;;;;;;3.85;3.20;;;26.80;99.90;;;;;;5033528;28;20030;-62
2023/06/07 01:44:59;;;;;;;5.00;3.30;;;26.80;99.90;;;;;;5033401;28;20351;-62
2023/06/07 01:47:25;;;;;;;4.78;3.58;;;26.80;99.90;;;;;;5033727;28;20037;-62
2023/06/07 01:49:51;;;;;;;5.30;3.60;;;26.80;99.90;;;;;;5033415;28;20179;-62
2023/06/07 01:52:17;;;;;;;8.70;3.88;;;26.80;99.90;;;;;;5032269;28;20478;-62
2023/06/07 01:54:43;;;;;;;5.00;3.63;;;26.80;99.90;;;;;;5032766;28;20124;-62
2023/06/07 01:57:18;;;;;;;5.63;3.38;;;26.80;99.90;;;;;;5033365;28;20005;-61
2023/06/07 01:59:55;;;;;;;5.72;3.38;;;26.80;99.90;;;;;;5033205;28;20068;-61
2023/06/07 02:03:06;;;;;;;4.55;3.10;;;26.80;99.90;;;;;;5033809;28;20124;-62
2023/06/07 02:05:36;;;;;;;5.45;3.72;;;26.80;99.90;;;;;;5027615;28;20107;-61
2023/06/07 02:08:13;;;;;;;4.78;3.17;;;26.80;99.90;;;;;;5033105;28;20029;-61
2023/06/07 02:10:41;;;;;;;4.88;3.03;;;26.80;99.90;;;;;;5033158;28;20394;-61
2023/06/07 02:13:08;;;;;;;5.53;3.53;;;26.80;99.90;;;;;;5033033;28;20029;-60
2023/06/07 02:15:34;;;;;;;;;;;26.70;99.90;;;;;;5033736;28;20355;-61
2023/06/07 02:18:03;;;;;;;6.00;3.55;;;26.70;99.90;;;;;;5032859;28;19912;-62
2023/06/07 02:20:30;;;;;;;6.53;3.75;;;26.70;99.90;;;;;;5031881;28;20041;-60
2023/06/07 02:22:57;;;;;;;5.13;3.55;;;26.70;99.90;;;;;;5032852;28;20021;-61
2023/06/07 02:25:23;;;;;;;5.80;3.72;;;26.70;99.90;;;;;;5033271;28;20029;-61
2023/06/07 02:27:49;;;;;;;5.55;3.97;;;26.70;99.90;;;;;;5032840;28;20100;-60
2023/06/07 02:30:16;;;;;;;7.60;4.40;;;26.70;99.90;;;;;;5033155;28;20366;-61
2023/06/07 02:32:45;;;;;;;6.70;3.78;;;26.70;99.90;;;;;;5031358;28;20032;-61
2023/06/07 02:35:11;;;;;;;5.57;3.47;;;26.70;99.90;;;;;;5033204;28;20403;-61
2023/06/07 02:37:37;;;;;;;3.85;3.42;;;26.70;99.90;;;;;;5032688;28;20028;-62
2023/06/07 02:40:13;;;;;;;4.70;3.40;;;26.70;99.90;;;;;;5032860;28;20110;-61
2023/06/07 02:42:44;;;;;;;5.97;3.58;;;26.70;99.90;;;;;;5022271;28;20032;-62
2023/06/07 02:45:11;;;;;;;5.18;3.40;;;26.70;99.90;;;;;;5032940;28;20014;-62
2023/06/07 02:47:37;;;;;;;4.97;3.22;;;26.70;99.90;;;;;;5032870;28;20026;-62
2023/06/07 02:50:06;;;;;;;4.65;3.72;;;26.70;99.90;;;;;;5032731;28;20057;-62
2023/06/07 02:52:36;;;;;;;5.40;3.70;;;26.70;99.90;;;;;;5032582;28;20103;-62
2023/06/07 02:55:03;;;;;;;5.60;3.83;;;26.70;99.90;;;;;;5032740;28;20489;-61
2023/06/07 02:57:29;;;;;;;5.65;3.75;;;26.70;99.90;;;;;;5022139;28;20533;-61
2023/06/07 02:59:56;;;;;;;7.15;3.60;;;26.70;99.90;;;;;;5014766;28;20489;-61
2023/06/07 03:02:22;;;;;;;5.55;3.97;;;26.70;99.90;;;;;;5020498;23;20258;-50
2023/06/07 03:04:50;;;;;;;5.97;3.83;;;26.70;99.90;;;;;;5008537;28;20491;-52
2023/06/07 03:07:16;;;;;;;5.90;3.47;;;26.70;99.90;;;;;;4995606;28;20521;-51
2023/06/07 03:09:43;;;;;;;6.30;3.63;;;26.70;99.90;;;;;;4996757;28;20121;-50
2023/06/07 03:12:10;;;;;;;5.32;3.75;;;26.70;99.90;;;;;;4997252;28;20015;-51
2023/06/07 03:14:38;;;;;;;5.05;3.80;;;26.70;99.90;;;;;;4996971;28;20133;-50
2023/06/07 03:17:04;;;;;;;5.88;3.50;;;26.70;99.90;;;;;;4996921;28;20019;-51
2023/06/07 03:19:30;;;;;;;5.50;3.83;;;26.70;99.90;;;;;;4995541;28;20391;-50
2023/06/07 03:21:55;;;;;;;5.85;4.22;;;26.60;99.90;;;;;;4995700;28;20030;-50
2023/06/07 03:24:23;;;;;;;6.05;4.07;;;26.70;99.90;;;;;;4996730;28;20102;-51
2023/06/07 03:26:50;;;;;;;;;;;26.70;99.90;;;;;;4996195;28;20406;-50
2023/06/07 03:29:15;;;;;;;6.72;4.10;;;26.70;99.90;;;;;;4996898;28;20376;-50
2023/06/07 03:31:41;;;;;;;7.32;3.55;;;26.60;99.90;;;;;;5011643;28;20122;-49
2023/06/07 03:34:07;;;;;;;7.13;4.35;;;26.70;99.90;;;;;;4996579;28;20036;-49
2023/06/07 03:36:33;;;;;;;5.90;4.05;;;26.70;99.90;;;;;;4996011;28;20015;-50
2023/06/07 03:38:59;;;;;;;7.15;4.32;;;26.70;99.90;;;;;;4996322;28;20019;-51
2023/06/07 03:41:28;;;;;;;5.95;3.53;;;26.70;99.90;;;;;;4996286;28;20105;-51
2023/06/07 03:43:53;;;;;;;6.45;4.20;;;26.70;99.90;;;;;;4996377;28;20045;-51
2023/06/07 03:46:19;;;;;;;8.30;4.85;;;26.70;99.90;;;;;;4996311;28;20467;-51
2023/06/07 03:48:45;;;;;;;5.90;3.97;;;26.70;99.90;;;;;;4996230;28;20042;-52
2023/06/07 03:51:11;;;;;;;5.45;4.00;;;26.70;99.90;;;;;;4996332;28;20026;-51
2023/06/07 03:53:38;;;;;;;5.55;3.70;;;26.70;99.90;;;;;;4996324;28;20118;-53
2023/06/07 03:56:05;;;;;;;6.85;4.32;;;26.60;99.90;;;;;;4996066;28;20068;-52
2023/06/07 03:58:31;;;;;;;5.30;3.47;;;26.70;99.90;;;;;;4996130;28;20080;-53
2023/06/07 04:00:57;;;;;;;6.68;4.60;;;26.60;99.90;;;;;;4996078;28;20042;-53
2023/06/07 04:03:27;;;;;;;7.28;4.60;;;26.60;99.90;;;;;;4995600;28;20018;-53
2023/06/07 04:06:02;;;;;;;5.85;4.15;;;26.60;99.90;;;;;;4995557;28;20438;-51
2023/06/07 04:08:27;;;;;;;6.80;4.40;;;26.60;99.90;;;;;;4995933;28;20038;-51
2023/06/07 04:10:53;;;;;;;6.80;4.43;;;26.60;99.90;;;;;;4995117;28;20027;-51
2023/06/07 04:13:19;;;;;;;5.93;4.60;;;26.60;99.90;;;;;;4995717;28;20089;-51
2023/06/07 04:15:45;;;;;;;6.40;3.13;;;26.60;99.90;;;;;;4995259;28;20027;-54
2023/06/07 04:18:11;;;;;;;7.85;2.63;;;26.60;99.90;;;;;;5009170;28;20045;-53
2023/06/07 04:20:40;;;;;;;8.05;2.65;;;26.60;99.90;;;;;;4995606;28;20379;-54
2023/06/07 04:23:06;;;;;;;7.75;2.78;;;26.50;99.90;;;;;;4994121;28;20068;-53
2023/06/07 04:25:32;;;;;;;7.32;2.47;;;26.50;99.90;;;;;;4995703;28;20026;-54
2023/06/07 04:28:01;;;;;;;7.72;2.45;;;26.40;99.90;;;;;;4994102;28;20109;-54
2023/06/07 04:30:36;;;;;;;7.15;2.20;;;26.40;99.90;;;;;;4995562;28;20018;-54
2023/06/07 04:33:09;;;;;;;5.18;2.13;;;26.30;99.90;;;;;;5009792;28;20054;-55
2023/06/07 04:35:41;;;;;;;9.38;2.13;;;26.20;99.90;;;;;;4995337;28;20023;-54
2023/06/07 04:38:12;;;;;;;6.60;1.90;;;26.10;99.90;;;;;;4995479;28;20031;-53
2023/06/07 04:40:41;;;;;;;6.20;1.85;;;26.10;99.90;;;;;;4995363;28;20022;-54
2023/06/07 04:43:08;;;;;;;6.47;2.45;;;26.10;99.90;;;;;;4995345;28;20044;-54
2023/06/07 04:45:41;;;;;;;8.43;2.88;;;26.00;99.90;;;;;;4994620;28;20442;-53
2023/06/07 04:48:13;;;;;;;9.77;2.75;;;26.00;99.90;;;;;;4995115;28;20029;-53
2023/06/07 04:50:43;;;;;;;6.38;2.30;;;25.90;99.90;;;;;;4995148;28;20041;-53
2023/06/07 04:53:10;;;;;;;6.22;2.30;;;25.90;99.90;;;;;;4995117;28;20018;-54
2023/06/07 04:55:37;;;;;;;9.90;2.75;;;25.80;99.90;;;;;;4995127;28;20379;-53
2023/06/07 04:58:04;;;;;;;5.82;2.50;;;25.80;99.90;;;;;;4995056;28;20474;-53
2023/06/07 05:00:31;;;;;;;16.20;2.95;;;25.80;99.90;;;;;;4994153;28;20063;-51
2023/06/07 05:03:06;;;;;;;6.65;2.13;;;25.80;99.90;;;;;;4994783;28;20022;-50
2023/06/07 05:05:33;;;;;;;6.45;2.08;;;25.80;99.90;;;;;;4981676;28;20034;-50
2023/06/07 05:07:59;;;;;;;5.88;2.63;;;25.80;99.90;;;;;;4993671;28;20023;-50
2023/06/07 05:10:24;;;;;;;10.80;2.08;;;25.70;99.90;;;;;;4994486;28;20026;-49
2023/06/07 05:12:50;;;;;;;4.68;2.22;;;25.80;99.90;;;;;;4994792;28;20027;-51
2023/06/07 05:15:16;;;;;;;4.93;1.95;;;25.80;99.90;;;;;;4994669;28;20033;-51
2023/06/07 05:17:45;;;;;;;3.35;2.15;;;25.80;99.90;;;;;;4994663;28;20014;-50
2023/06/07 05:20:12;;;;;;;5.28;2.30;;;25.80;99.90;;;;;;4994629;28;20498;-50
2023/06/07 05:22:39;;;;;;;5.00;1.75;;;25.80;99.90;;;;;;4994628;28;20037;-51
2023/06/07 05:25:06;;;;;;;3.05;2.00;;;25.90;99.90;;;;;;5009755;28;20061;-49
2023/06/07 05:27:32;;;;;;;3.40;1.92;;;25.90;99.90;;;;;;4994338;28;20026;-50
2023/06/07 05:29:58;;;;;;;4.78;2.10;;;25.90;99.90;;;;;;4994263;28;20375;-49
2023/06/07 05:32:24;;;;;;;4.68;1.95;;;25.90;99.90;;;;;;4994313;28;20018;-49
2023/06/07 05:34:51;;;;;;;3.70;2.17;;;25.90;99.90;;;;;;4994312;28;20109;-49
2023/06/07 05:37:18;;;;;;;6.22;2.00;;;25.90;99.90;;;;;;4994127;28;20479;-50
2023/06/07 05:39:46;;;;;;;3.73;1.90;;;26.00;99.90;;;;;;4994149;28;20038;-50
2023/06/07 05:42:12;;;;;;;3.42;1.98;;;26.00;99.90;;;;;;4993990;28;20268;-50
2023/06/07 05:44:40;;;;;;;3.50;1.85;;;25.90;99.90;;;;;;5009454;28;20157;-51
2023/06/07 05:47:06;;;;;;;4.07;2.40;;;26.00;99.90;;;;;;4994167;28;20015;-51
2023/06/07 05:49:32;;;;;;;5.03;2.08;;;26.00;99.90;;;;;;4993760;28;20475;-51
2023/06/07 05:51:58;;;;;;;3.90;2.05;;;26.00;99.90;;;;;;4993904;28;20030;-51
2023/06/07 05:54:24;;;;;;;4.80;2.10;;;26.00;99.90;;;;;;4993630;28;20034;-51
2023/06/07 05:56:50;;;;;;;4.83;2.17;;;26.00;99.90;;;;;;5009142;28;20463;-51
2023/06/07 05:59:16;;;;;;;4.32;2.00;;;26.00;99.90;;;;;;4994085;28;20081;-51
2023/06/07 06:01:44;;;;;;;4.93;2.03;;;26.00;99.90;;;;;;4992506;28;20510;-49
2023/06/07 06:04:10;;;;;;;3.47;1.92;;;26.10;99.90;;;;;;4993914;28;20152;-50
2023/06/07 06:06:38;;;;;;;5.00;2.45;;;26.10;99.90;;;;;;4993807;28;20069;-53
2023/06/07 06:09:07;;;;;;;5.50;2.33;;;26.10;99.90;;;;;;4993806;28;20030;-49
2023/06/07 06:11:32;;;;;;;3.63;1.60;;;26.10;99.90;;;;;;4993709;28;20014;-49
2023/06/07 06:13:58;;;;;;;3.97;1.98;;;26.10;99.90;;;;;;4993730;28;20462;-49
2023/06/07 06:16:24;;;;;;;4.47;2.08;;;26.10;99.90;;;;;;4993616;28;20033;-50
2023/06/07 06:18:50;;;;;;;2.65;1.92;;;26.10;99.90;;;;;;4992285;28;20026;-49
2023/06/07 06:21:16;;;;;;;2.80;1.90;;;26.10;99.90;;;;;;4993514;28;20490;-49
2023/06/07 06:23:41;;;;;;;5.40;2.17;;;26.10;99.90;;;;;;4993440;28;20483;-50
2023/06/07 06:26:07;;;;;;;3.05;1.90;;;26.10;99.90;;;;;;4993683;28;20073;-52
2023/06/07 06:28:33;;;;;;;4.35;2.53;;;26.10;99.90;;;;;;4993432;28;20042;-51
2023/06/07 06:31:01;;;;;;;3.92;1.90;;;26.10;99.90;;;;;;4993460;28;20034;-52
2023/06/07 06:33:27;;;;;;;3.15;1.88;;;26.10;99.90;;;;;;4993613;28;20029;-52
2023/06/07 06:35:53;;;;;;;4.35;2.15;;;26.10;99.90;;;;;;4993520;28;20019;-50
2023/06/07 06:38:19;;;;;;;4.63;2.10;;;26.10;99.90;;;;;;4993356;28;20509;-50
2023/06/07 06:40:45;;;;;;;3.75;2.72;;;26.10;99.90;;;;;;4993714;28;20018;-50
2023/06/07 06:43:11;;;;;;;5.07;2.33;;;26.10;99.90;;;;;;4997477;28;20371;-50
2023/06/07 06:45:38;;;;;;;5.15;2.38;;;26.10;99.90;;;;;;4997558;28;20085;-50
2023/06/07 06:48:05;;;;;;;3.13;1.98;;;26.10;99.90;;;;;;4997619;28;20057;-50
2023/06/07 06:50:30;;;;;;;3.08;1.95;;;26.10;99.90;;;;;;4997481;28;20034;-50
2023/06/07 06:52:56;;;;;;;3.47;2.17;;;26.10;99.90;;;;;;4997439;28;20023;-51
2023/06/07 06:55:22;;;;;;;4.00;1.80;;;26.10;99.90;;;;;;4997183;28;20486;-50
2023/06/07 06:57:48;;;;;;;4.72;2.70;;;26.10;99.90;;;;;;4997359;28;20033;-50
2023/06/07 07:00:14;;;;;;;3.72;2.00;;;26.10;99.90;;;;;;4996918;28;20053;-48
2023/06/07 07:02:40;;;;;;;3.13;2.20;;;26.10;99.90;;;;;;4997292;28;20019;-51
2023/06/07 07:05:06;;;;;;;6.57;2.05;;;26.10;99.90;;;;;;4997025;28;20121;-51
2023/06/07 07:07:32;;;;;;;3.72;2.10;;;26.10;99.90;;;;;;4997091;28;20034;-52
2023/06/07 07:09:59;;;;;;;4.80;2.20;;;26.20;99.90;;;;;;4996903;28;20049;-51
2023/06/07 07:12:25;;;;;;;4.20;2.20;;;26.10;99.90;;;;;;4996995;28;20046;-51
2023/06/07 07:14:51;;;;;;;3.85;2.35;;;26.10;99.90;;;;;;4996953;28;20169;-53
2023/06/07 07:17:17;;;;;;;4.40;2.55;;;26.10;99.90;;;;;;4997026;28;20030;-51
2023/06/07 07:19:42;;;;;;;5.00;2.40;;;26.10;99.90;;;;;;4997040;28;20033;-52
2023/06/07 07:22:08;;;;;;;4.38;2.50;;;26.10;99.90;;;;;;4995572;28;20117;-51
2023/06/07 07:24:34;;;;;;;5.05;2.13;;;26.10;99.90;;;;;;4996986;28;20026;-51
2023/06/07 07:27:00;;;;;;;4.10;2.20;;;26.20;99.90;;;;;;4996716;28;20014;-51
2023/06/07 07:29:26;;;;;;;7.20;2.85;;;26.10;99.90;;;;;;4996649;28;20037;-51
2023/06/07 07:31:52;;;;;;;5.35;2.33;;;26.10;99.90;;;;;;4996600;28;20458;-50
2023/06/07 07:34:18;;;;;;;4.47;2.38;;;26.10;99.90;;;;;;4995442;28;20054;-50
2023/06/07 07:36:44;;;;;;;2.85;2.00;;;26.10;99.90;;;;;;4996248;28;20482;-51
2023/06/07 07:39:17;;;;;;;3.40;2.42;;;26.10;99.90;;;;;;4996440;28;20065;-51
2023/06/07 07:41:43;;;;;;;3.95;2.40;;;26.10;99.90;;;;;;4996314;28;20019;-51
2023/06/07 07:44:08;;;;;;;3.72;2.50;;;26.10;99.90;;;;;;4996404;28;20105;-51
2023/06/07 07:46:35;;;;;;;4.47;2.50;;;26.10;99.90;;;;;;4996178;28;20072;-50
2023/06/07 07:49:01;;;;;;;3.97;2.60;;;26.10;99.90;;;;;;5011242;28;20030;-50
2023/06/07 07:51:27;;;;;;;5.50;2.47;;;26.10;99.90;;;;;;4996346;28;20027;-50
2023/06/07 07:53:53;;;;;;;3.30;2.47;;;26.10;99.90;;;;;;4994966;28;20026;-49
2023/06/07 07:56:21;;;;;;;3.97;2.38;;;26.10;99.90;;;;;;4996190;28;20471;-50
2023/06/07 07:58:47;;;;;;;3.95;2.22;;;26.10;99.90;;;;;;4996181;28;20030;-50
2023/06/07 08:01:18;;;;;;;4.93;2.72;;;26.10;99.90;;;;;;4995899;28;20502;-50
2023/06/07 08:03:45;;;;;;;4.75;2.50;;;26.10;99.90;;;;;;4996016;28;20521;-50
2023/06/07 08:06:11;;;;;;;4.27;2.67;;;26.10;99.90;;;;;;4996006;28;20541;-50
2023/06/07 08:08:37;;;;;;;6.28;2.88;;;26.10;99.90;;;;;;4995764;28;20284;-50
2023/06/07 08:11:03;;;;;;;3.90;2.75;;;26.10;99.90;;;;;;4995913;28;20026;-50
2023/06/07 08:13:28;;;;;;;4.55;2.75;;;26.10;99.90;;;;;;4995749;28;20073;-50
2023/06/07 08:15:55;;;;;;;3.58;2.33;;;26.10;99.90;;;;;;4995661;28;20077;-50
2023/06/07 08:18:20;;;;;;;3.97;2.38;;;26.10;99.90;;;;;;4995587;28;20467;-50
2023/06/07 08:20:46;;;;;;;5.28;2.78;;;26.10;99.90;;;;;;4995553;28;20083;-49
2023/06/07 08:23:12;;;;;;;3.33;2.42;;;26.10;99.90;;;;;;4995871;28;20018;-49
2023/06/07 08:25:38;;;;;;;4.25;2.55;;;26.10;99.90;;;;;;4995731;28;20030;-49
2023/06/07 08:28:04;;;;;;;4.28;2.17;;;26.10;99.90;;;;;;4995342;28;20112;-50
2023/06/07 08:30:31;;;;;;;6.95;3.03;;;26.10;99.90;;;;;;4995483;28;20490;-50
2023/06/07 08:32:57;;;;;;;3.75;2.38;;;26.20;99.90;;;;;;4995444;28;20022;-50
2023/06/07 08:35:22;;;;;;;6.05;2.50;;;26.10;99.90;;;;;;4995462;28;20385;-50
2023/06/07 08:37:48;;;;;;;3.03;2.00;;;26.10;99.90;;;;;;4995458;28;20022;-50
2023/06/07 08:40:18;;;;;;;6.00;3.00;;;26.10;99.90;;;;;;4995088;28;20410;-49
2023/06/07 08:42:44;;;;;;;3.35;2.47;;;26.10;99.90;;;;;;4995293;28;20027;-50
2023/06/07 08:45:10;;;;;;;6.60;2.67;;;26.10;99.90;;;;;;4993879;28;20105;-51
2023/06/07 08:47:37;;;;;;;3.95;2.55;;;26.10;99.90;;;;;;5010331;28;20022;-51
2023/06/07 08:50:03;;;;;;;4.70;2.05;;;26.10;99.90;;;;;;5010228;28;20062;-51
2023/06/07 08:52:31;;;;;;;3.10;2.17;;;26.10;99.90;;;;;;4995222;28;20069;-49
2023/06/07 08:55:02;;;;;;;4.13;2.70;;;26.20;99.90;;;;;;4995158;28;20375;-51
2023/06/07 08:57:30;;;;;;;3.80;2.58;;;26.10;99.90;;;;;;4995054;28;20049;-51
2023/06/07 08:59:57;;;;;;;3.45;2.40;;;26.10;99.90;;;;;;4995015;28;20386;-50
2023/06/07 09:02:25;;;;;;;2.93;2.33;;;26.20;99.90;;;;;;4994875;28;20519;-50
2023/06/07 09:04:51;;;;;;;5.88;2.70;;;26.20;99.90;;;;;;4994424;28;20019;-50
2023/06/07 09:07:17;;;;;;;4.07;2.40;;;26.20;99.90;;;;;;4995078;28;20101;-50
2023/06/07 09:09:43;;;;;;;3.63;2.17;;;26.20;99.90;;;;;;4994575;28;20545;-50
2023/06/07 09:12:13;;;;;;;3.78;2.30;;;26.10;99.90;;;;;;5009825;28;20033;-49
2023/06/07 09:14:39;;;;;;;4.03;2.40;;;26.20;99.90;;;;;;4994658;28;20603;-49
2023/06/07 09:17:05;;;;;;;5.07;2.17;;;26.20;99.90;;;;;;4994620;28;20022;-49
2023/06/07 09:19:36;;;;;;;5.88;2.35;;;26.20;99.90;;;;;;4994561;28;20029;-50
2023/06/07 09:22:03;;;;;;;3.95;3.03;;;26.20;99.90;;;;;;4994593;28;20050;-51
2023/06/07 09:24:30;;;;;;;3.38;2.40;;;26.20;99.90;;;;;;4994461;28;20390;-51
2023/06/07 09:26:57;;;;;;;4.45;2.53;;;26.20;99.90;;;;;;4994524;28;20393;-51
2023/06/07 09:29:23;;;;;;;3.40;2.23;;;26.20;99.90;;;;;;4994105;28;20034;-51
2023/06/07 09:31:49;;;;;;;2.97;2.03;;;26.20;99.90;;;;;;4994273;28;20267;-51
2023/06/07 09:34:23;;;;;;;4.10;2.17;;;26.20;99.90;;;;;;4994235;28;20022;-51
2023/06/07 09:36:58;;;;;;;2.83;2.15;;;26.20;99.90;;;;;;4981639;28;20033;-51
2023/06/07 09:39:28;;;;;;;3.40;2.47;;;26.20;99.90;;;;;;4994395;28;20022;-51
2023/06/07 09:41:55;;;;;;;3.55;2.40;;;26.20;99.90;;;;;;4994143;28;20471;-51
2023/06/07 09:44:28;;;;;;;4.72;2.30;;;26.20;99.90;;;;;;4994044;28;20038;-52
2023/06/07 09:46:54;;;;;;;3.08;2.10;;;26.20;99.90;;;;;;4994102;28;20098;-52
2023/06/07 09:49:31;;;;;;;4.38;3.03;;;26.20;99.90;;;;;;4994080;28;20084;-53
2023/06/07 09:51:58;;;;;;;3.28;2.55;;;26.20;99.90;;;;;;4979183;28;20018;-52
2023/06/07 09:54:38;;;;;;;4.38;2.80;;;26.20;99.90;;;;;;4993977;28;20022;-50
2023/06/07 09:57:27;;;;;;;4.10;2.90;;;26.20;99.90;;;;;;4993875;28;20026;-51
2023/06/07 10:00:16;;;;;;;3.97;2.78;;;26.20;99.90;;;;;;4993845;28;20526;-51
2023/06/07 10:02:42;;;;;;;3.95;3.25;;;26.20;99.90;;;;;;4993896;28;20088;-51
2023/06/07 10:05:09;;;;;;;5.43;2.70;;;26.20;99.90;;;;;;4993846;28;20014;-51
2023/06/07 10:07:42;;;;;;;4.37;2.90;;;26.20;99.90;;;;;;4993805;28;20034;-50
2023/06/07 10:10:12;;;;;;;4.57;2.58;;;26.20;99.90;;;;;;5008512;28;20088;-51
2023/06/07 10:12:42;;;;;;;3.78;2.88;;;26.20;99.90;;;;;;4993940;28;20042;-50
2023/06/07 10:15:10;;;;;;;3.47;2.53;;;26.20;99.90;;;;;;5008811;28;20026;-50
2023/06/07 10:17:50;;;;;;;3.97;2.70;;;26.20;99.90;;;;;;4993090;28;20106;-50
2023/06/07 10:20:35;;;;;;;4.05;3.08;;;26.20;99.90;;;;;;4993498;28;20022;-51
2023/06/07 10:23:07;;;;;;;3.15;2.60;;;26.20;99.90;;;;;;4993447;28;20029;-49
2023/06/07 10:25:52;;;;;;;4.95;3.10;;;26.20;99.90;;;;;;5008672;28;20022;-51
2023/06/07 10:28:32;;;;;;;6.53;3.33;;;26.20;99.90;;;;;;4993300;28;20069;-50
2023/06/07 10:31:05;;;;;;;4.78;2.92;;;26.20;99.90;;;;;;4993642;28;20034;-50
2023/06/07 10:33:32;;;;;;;3.83;2.85;;;26.20;99.90;;;;;;4993397;28;20027;-51
2023/06/07 10:35:58;;;;;;;;;;;26.20;99.90;;;;;;4993821;28;20031;-51
2023/06/07 10:38:24;;;;;;;3.95;2.60;;;26.20;99.90;;;;;;4993317;28;19905;-50
2023/06/07 10:40:51;;;;;;;12.98;3.25;;;26.20;99.90;;;;;;5008726;28;20030;-51
2023/06/07 10:43:19;;;;;;;5.60;3.25;;;26.20;99.90;;;;;;4993162;28;20034;-52
2023/06/07 10:45:45;;;;;;;;;;;26.20;99.90;;;;;;4993913;28;20050;-52
2023/06/07 10:48:35;;;;;;;4.18;3.00;;;26.20;99.90;;;;;;4993192;28;19913;-52
2023/06/07 10:51:01;;;;;;;3.67;2.72;;;26.20;99.90;;;;;;4993440;28;20061;-52
2023/06/07 10:53:50;;;;;;;4.50;3.17;;;26.20;99.90;;;;;;4993325;28;20018;-53
2023/06/07 10:56:34;;;;;;;4.60;3.00;;;26.20;99.90;;;;;;4993370;28;20545;-50
2023/06/07 10:59:15;;;;;;;4.25;3.15;;;26.20;99.90;;;;;;4996972;28;20026;-51
2023/06/07 11:01:43;;;;;;;4.35;3.17;;;26.20;99.90;;;;;;4993066;28;20049;-50
2023/06/07 11:04:39;;;;;;;6.38;3.53;;;26.20;99.90;;;;;;4993254;28;20027;-51
2023/06/07 11:07:19;;;;;;;4.28;3.28;;;26.20;99.90;;;;;;4990709;28;20030;-51
2023/06/07 11:10:10;;;;;;;5.53;3.10;;;26.20;99.90;;;;;;4993127;28;20379;-51
2023/06/07 11:12:44;;;;;;;4.60;3.22;;;26.20;99.90;;;;;;4993173;28;20026;-51
2023/06/07 11:15:24;;;;;;;5.05;3.53;;;26.20;99.90;;;;;;4992948;28;20057;-50
2023/06/07 11:18:08;;;;;;;5.63;3.45;;;26.20;99.90;;;;;;4993296;28;20034;-50
2023/06/07 11:20:37;;;;;;;5.45;3.85;;;26.20;99.90;;;;;;4993163;28;20026;-51
2023/06/07 11:23:33;;;;;;;6.88;4.07;;;26.20;99.90;;;;;;4993424;28;20018;-50
2023/06/07 11:26:06;;;;;;;5.03;3.42;;;26.20;99.90;;;;;;4997717;28;20030;-50
2023/06/07 11:28:34;;;;;;;5.25;3.50;;;26.20;99.90;;;;;;4995362;28;20434;-50
2023/06/07 11:31:02;;;;;;;5.72;4.03;;;26.30;99.90;;;;;;4996681;28;20033;-51
2023/06/07 11:33:28;;;;;;;6.57;3.45;;;26.30;99.90;;;;;;4996615;28;20018;-50
2023/06/07 11:35:55;;;;;;;5.72;3.80;;;26.20;99.90;;;;;;4996360;28;20046;-49
2023/06/07 11:38:22;;;;;;;7.00;3.80;;;26.30;99.90;;;;;;4996375;28;20061;-50
2023/06/07 11:40:48;;;;;;;7.00;4.20;;;26.30;99.90;;;;;;4996659;28;20027;-50
2023/06/07 11:43:20;;;;;;;6.53;4.18;;;26.30;99.90;;;;;;4996226;28;20029;-50
2023/06/07 11:45:46;;;;;;;8.07;3.88;;;26.30;99.90;;;;;;4996372;28;20483;-50
2023/06/07 11:48:12;;;;;;;6.95;3.85;;;26.30;99.90;;;;;;4996037;28;20031;-50
2023/06/07 11:50:39;;;;;;;6.20;3.80;;;26.30;99.90;;;;;;4996480;28;20022;-51
2023/06/07 11:53:11;;;;;;;6.20;4.20;;;26.30;99.90;;;;;;4996320;28;20080;-53
2023/06/07 11:55:39;;;;;;;5.13;3.47;;;26.30;99.90;;;;;;4996271;28;20026;-51
2023/06/07 11:58:06;;;;;;;6.53;4.25;;;26.30;99.90;;;;;;5011360;28;20026;-52
2023/06/07 12:00:34;;;;;;;8.00;4.38;;;26.30;99.90;;;;;;4996095;28;20018;-51
2023/06/07 12:03:01;;;;;;;6.50;4.60;;;26.30;99.90;;;;;;4995892;28;20039;-51
2023/06/07 12:05:30;;;;;;;8.00;4.82;;;26.30;99.90;;;;;;4996295;28;20485;-51
2023/06/07 12:08:07;;;;;;;6.80;4.35;;;26.30;99.90;;;;;;4995870;28;20074;-51
2023/06/07 12:10:36;;;;;;;6.60;4.07;;;26.30;99.90;;;;;;4996010;28;20524;-51
2023/06/07 12:13:16;;;;;;;6.65;4.30;;;26.30;99.90;;;;;;4995695;28;20112;-51
2023/06/07 12:15:44;;;;;;;7.97;4.75;;;26.30;99.90;;;;;;4995881;28;20022;-51
2023/06/07 12:18:12;;;;;;;7.10;4.30;;;26.30;99.90;;;;;;5010614;28;20098;-51
2023/06/07 12:20:39;;;;;;;8.00;4.35;;;26.30;99.90;;;;;;4995697;28;20125;-50
2023/06/07 12:23:05;;;;;;;6.75;4.78;;;26.30;99.90;;;;;;4995470;28;20018;-52
2023/06/07 12:25:34;;;;;;;8.82;4.50;;;26.30;99.90;;;;;;4995687;28;20041;-51
2023/06/07 12:28:05;;;;;;;4.97;3.85;;;26.30;99.90;;;;;;4995488;28;20082;-52
2023/06/07 12:30:37;;;;;;;8.50;4.38;;;26.30;99.90;;;;;;4995701;28;20404;-51
2023/06/07 12:33:03;;;;;;;8.07;4.95;;;26.30;99.90;;;;;;4995531;28;20098;-52
2023/06/07 12:35:39;;;;;;;8.00;5.22;;;26.30;99.90;;;;;;4995559;28;20042;-51
2023/06/07 12:38:06;;;;;;;6.70;4.40;;;26.40;99.90;;;;;;4995486;28;20100;-51
2023/06/07 12:40:32;;;;;;;6.65;4.53;;;26.30;99.90;;;;;;4982024;28;20553;-51
2023/06/07 12:42:58;;;;;;;7.70;4.15;;;26.30;99.90;;;;;;4995210;28;20035;-51
2023/06/07 12:45:24;;;;;;;8.23;5.32;;;26.40;99.90;;;;;;4995230;28;20018;-50
2023/06/07 12:47:50;;;;;;;5.75;4.28;;;26.30;99.90;;;;;;4995498;28;20022;-50
2023/06/07 12:50:16;;;;;;;7.95;5.13;;;26.40;99.90;;;;;;4995163;28;20036;-51
2023/06/07 12:52:43;;;;;;;7.15;4.90;;;26.40;99.90;;;;;;4995159;28;20105;-50
2023/06/07 12:55:09;;;;;;;7.63;5.30;;;26.40;99.90;;;;;;4995142;28;20475;-51